Time;durP1;ratioP1;P1;durP2;ratioP2;P2;SDS_P1;SDS_P2;PMS_P1;PMS_P2;Temp;Humidity;BMP_temperature;BMP_pressure;BME280_temperature;BME280_humidity;BME280_pressure;Samples;Min_cycle;Max_cycle;Signal;HPM_P1;HPM_P2
2022/07/11 00:00:11;;;;;;;7.03;2.50;;;12.90;99.90;;;;;;5074755;28;20403;-67
2022/07/11 00:02:39;;;;;;;4.07;2.33;;;12.90;99.90;;;;;;5075645;28;21193;-76
2022/07/11 00:05:05;;;;;;;5.83;2.43;;;12.90;99.90;;;;;;5094754;28;20423;-67
2022/07/11 00:07:31;;;;;;;5.63;2.87;;;12.90;99.90;;;;;;5089602;28;20427;-69
2022/07/11 00:09:57;;;;;;;10.97;2.50;;;12.90;99.90;;;;;;5074043;28;20424;-67
2022/07/11 00:12:26;;;;;;;2.47;2.20;;;12.80;99.90;;;;;;5076419;28;20203;-76
2022/07/11 00:14:53;;;;;;;4.13;3.20;;;12.80;99.90;;;;;;5094794;28;20997;-67
2022/07/11 00:17:19;;;;;;;6.27;3.17;;;12.70;99.90;;;;;;5092527;28;20428;-76
2022/07/11 00:19:46;;;;;;;12.20;3.13;;;12.70;99.90;;;;;;5074265;28;20408;-75
2022/07/11 00:22:12;;;;;;;6.73;2.73;;;12.70;99.90;;;;;;5076871;28;20204;-77
2022/07/11 00:24:38;;;;;;;11.00;2.40;;;12.70;99.90;;;;;;5094450;28;20423;-79
2022/07/11 00:27:04;;;;;;;14.40;2.80;;;12.60;99.90;;;;;;5092905;28;20480;-71
2022/07/11 00:29:30;;;;;;;5.30;2.30;;;12.50;99.90;;;;;;5094431;28;20402;-70
2022/07/11 00:31:57;;;;;;;3.80;2.17;;;12.50;99.90;;;;;;5088376;28;20453;-73
2022/07/11 00:34:23;;;;;;;4.20;2.33;;;12.50;99.90;;;;;;5085813;28;20485;-78
2022/07/11 00:36:48;;;;;;;8.47;2.40;;;12.50;99.90;;;;;;5094350;28;20387;-78
2022/07/11 00:39:14;;;;;;;6.27;2.70;;;12.50;99.90;;;;;;5093576;28;20217;-70
2022/07/11 00:41:39;;;;;;;2.90;2.20;;;12.40;99.90;;;;;;5094418;28;20257;-79
2022/07/11 00:44:05;;;;;;;7.73;2.60;;;12.50;99.90;;;;;;5089575;28;20190;-78
2022/07/11 00:46:31;;;;;;;3.97;2.90;;;12.50;99.90;;;;;;5073687;28;20174;-69
2022/07/11 00:48:58;;;;;;;2.70;2.50;;;12.40;99.90;;;;;;5074683;28;20498;-69
2022/07/11 00:51:25;;;;;;;7.87;2.60;;;12.40;99.90;;;;;;5094113;28;20177;-77
2022/07/11 00:53:56;;;;;;;2.60;2.40;;;12.40;99.90;;;;;;5083004;28;20415;-78
2022/07/11 00:56:24;;;;;;;9.00;2.60;;;12.40;99.90;;;;;;5073727;28;20393;-78
2022/07/11 00:58:50;;;;;;;2.97;2.53;;;12.30;99.90;;;;;;5073654;28;20375;-69
2022/07/11 01:01:17;;;;;;;5.97;2.23;;;12.40;99.90;;;;;;5093073;28;20390;-78
2022/07/11 01:03:43;;;;;;;4.50;2.97;;;12.30;99.90;;;;;;5087946;28;20415;-78
2022/07/11 01:06:09;;;;;;;2.83;2.43;;;12.30;99.90;;;;;;5073617;28;20723;-70
2022/07/11 01:08:36;;;;;;;5.37;2.57;;;12.30;99.90;;;;;;5075687;28;20177;-69
2022/07/11 01:11:03;;;;;;;3.60;2.50;;;12.30;99.90;;;;;;5093734;28;20424;-78
2022/07/11 01:13:30;;;;;;;2.37;2.20;;;12.20;99.90;;;;;;5074459;28;20980;-78
2022/07/11 01:16:19;;;;;;;3.53;3.27;;;12.10;99.90;;;;;;5072956;28;20454;-78
2022/07/11 01:18:47;;;;;;;2.23;2.13;;;12.10;99.90;;;;;;5091996;28;20432;-69
2022/07/11 01:21:26;;;;;;;8.60;2.30;;;12.10;99.90;;;;;;5080495;28;20997;-78
2022/07/11 01:23:54;;;;;;;2.67;2.30;;;12.10;99.90;;;;;;5092334;28;20436;-69
2022/07/11 01:26:21;;;;;;;5.27;2.97;;;12.00;99.90;;;;;;5093127;28;20377;-77
2022/07/11 01:28:47;;;;;;;5.33;2.73;;;12.10;99.90;;;;;;5074118;28;21008;-78
2022/07/11 01:31:13;;;;;;;3.07;2.30;;;12.10;99.90;;;;;;5073285;28;20392;-69
2022/07/11 01:33:40;;;;;;;2.70;2.30;;;12.10;99.90;;;;;;5073582;28;20442;-69
2022/07/11 01:36:06;;;;;;;7.90;2.63;;;12.10;99.90;;;;;;5073307;28;20408;-78
2022/07/11 01:38:32;;;;;;;2.90;2.10;;;12.10;99.90;;;;;;5089947;28;20882;-70
2022/07/11 01:40:57;;;;;;;3.40;3.10;;;12.10;99.90;;;;;;5093503;28;20495;-78
2022/07/11 01:43:24;;;;;;;5.03;2.33;;;12.10;99.90;;;;;;5077155;28;20196;-69
2022/07/11 01:45:53;;;;;;;3.90;2.53;;;12.10;99.90;;;;;;5072583;28;20173;-78
2022/07/11 01:48:19;;;;;;;6.90;3.70;;;12.00;99.90;;;;;;5085543;28;20397;-75
2022/07/11 01:50:46;;;;;;;2.77;2.53;;;12.00;99.90;;;;;;5093347;28;20378;-70
2022/07/11 01:53:12;;;;;;;3.13;2.40;;;12.00;99.90;;;;;;5079861;28;20520;-76
2022/07/11 01:55:38;;;;;;;7.27;2.87;;;11.90;99.90;;;;;;5085348;28;20446;-76
2022/07/11 01:58:03;;;;;;;3.10;2.40;;;11.90;99.90;;;;;;5091545;28;20394;-69
2022/07/11 02:00:29;;;;;;;3.43;2.80;;;12.00;99.90;;;;;;5092845;28;20189;-78
2022/07/11 02:02:55;;;;;;;3.10;2.37;;;12.00;99.90;;;;;;5082863;28;20178;-78
2022/07/11 02:05:21;;;;;;;3.00;1.97;;;12.00;99.90;;;;;;5072983;28;20597;-69
2022/07/11 02:10:47;;;;;;;4.97;2.27;;;12.10;99.90;;;;;;5069726;28;20421;-69
2022/07/11 02:13:15;;;;;;;5.33;2.60;;;12.00;99.90;;;;;;5082267;28;20559;-76
2022/07/11 02:15:43;;;;;;;4.87;2.50;;;12.00;99.90;;;;;;5073260;28;20887;-78
2022/07/11 02:18:10;;;;;;;2.90;2.70;;;12.00;99.90;;;;;;5080887;28;20474;-70
2022/07/11 02:20:37;;;;;;;4.07;2.60;;;12.00;99.90;;;;;;5092287;28;20410;-77
2022/07/11 02:23:03;;;;;;;3.90;2.60;;;12.00;99.90;;;;;;5085127;28;20930;-78
2022/07/11 02:25:30;;;;;;;7.80;3.97;;;12.00;99.90;;;;;;5073424;28;20977;-78
2022/07/11 02:27:55;;;;;;;3.87;2.50;;;12.00;99.90;;;;;;5081256;28;20742;-69
2022/07/11 02:30:22;;;;;;;4.40;2.43;;;12.00;99.90;;;;;;5096735;28;20482;-79
2022/07/11 02:32:50;;;;;;;2.90;2.70;;;11.90;99.90;;;;;;5088032;28;20444;-78
2022/07/11 02:35:16;;;;;;;2.90;2.23;;;12.00;99.90;;;;;;5076369;28;20426;-69
2022/07/11 02:37:43;;;;;;;5.57;2.80;;;11.90;99.90;;;;;;5081622;28;20477;-70
2022/07/11 02:40:09;;;;;;;4.93;2.30;;;11.90;99.90;;;;;;5096258;28;20491;-79
2022/07/11 02:42:35;;;;;;;4.70;2.40;;;11.90;99.90;;;;;;5091219;28;20481;-70
2022/07/11 02:45:00;;;;;;;2.63;2.43;;;11.90;99.90;;;;;;5076069;28;20201;-78
2022/07/11 02:47:26;;;;;;;3.23;2.40;;;11.80;99.90;;;;;;5082054;28;20202;-76
2022/07/11 02:49:51;;;;;;;4.70;2.23;;;11.80;99.90;;;;;;5096548;28;20204;-79
2022/07/11 02:52:17;;;;;;;8.13;3.03;;;11.80;99.90;;;;;;5090905;28;20585;-69
2022/07/11 02:54:43;;;;;;;2.90;2.70;;;11.80;99.90;;;;;;5076116;28;20235;-69
2022/07/11 02:57:08;;;;;;;2.83;2.50;;;11.70;99.90;;;;;;5078230;28;20210;-78
2022/07/11 02:59:34;;;;;;;8.30;3.03;;;11.70;99.90;;;;;;5075160;28;20186;-78
2022/07/11 03:02:00;;;;;;;8.23;2.53;;;11.70;99.90;;;;;;5076347;28;20175;-78
2022/07/11 03:04:25;;;;;;;3.70;2.47;;;11.60;99.90;;;;;;5095393;28;20205;-69
2022/07/11 03:06:51;;;;;;;3.07;2.77;;;11.60;99.90;;;;;;5096092;28;20170;-69
2022/07/11 03:09:17;;;;;;;2.63;2.43;;;11.50;99.90;;;;;;5075238;28;20200;-78
2022/07/11 03:11:42;;;;;;;2.70;2.43;;;11.50;99.90;;;;;;5084838;28;20200;-69
2022/07/11 03:14:09;;;;;;;10.43;3.60;;;11.50;99.90;;;;;;5095038;28;20190;-69
2022/07/11 03:16:34;;;;;;;3.83;2.60;;;11.50;99.90;;;;;;5088289;28;20169;-78
2022/07/11 03:19:00;;;;;;;2.77;2.57;;;11.50;99.90;;;;;;5074980;28;20405;-79
2022/07/11 03:21:26;;;;;;;3.03;2.60;;;11.50;99.90;;;;;;5076561;28;20595;-78
2022/07/11 03:23:51;;;;;;;7.20;2.70;;;11.50;99.90;;;;;;5074521;28;20249;-69
2022/07/11 03:26:17;;;;;;;2.73;2.53;;;11.60;99.90;;;;;;5082144;28;20569;-69
2022/07/11 03:28:43;;;;;;;3.33;2.57;;;11.60;99.90;;;;;;5094398;28;20192;-69
2022/07/11 03:31:09;;;;;;;4.73;2.90;;;11.60;99.90;;;;;;5093922;28;20908;-76
2022/07/11 03:33:35;;;;;;;3.27;2.50;;;11.60;99.90;;;;;;5094343;28;20205;-78
2022/07/11 03:36:00;;;;;;;2.73;2.30;;;11.60;99.90;;;;;;5091983;28;20223;-76
2022/07/11 03:38:26;;;;;;;4.90;2.50;;;11.60;99.90;;;;;;5074063;28;20182;-78
2022/07/11 03:40:53;;;;;;;3.73;2.80;;;11.60;99.90;;;;;;5076445;28;20237;-69
2022/07/11 03:43:19;;;;;;;4.40;2.13;;;11.50;99.90;;;;;;5094365;28;20283;-70
2022/07/11 03:45:44;;;;;;;2.57;2.37;;;11.50;99.90;;;;;;5091282;28;20395;-77
2022/07/11 03:48:10;;;;;;;5.43;2.90;;;11.50;99.90;;;;;;5074911;28;20175;-78
2022/07/11 03:50:36;;;;;;;3.30;2.33;;;11.40;99.90;;;;;;5076784;28;20174;-70
2022/07/11 03:53:02;;;;;;;6.70;3.13;;;11.50;99.90;;;;;;5094183;28;20334;-69
2022/07/11 03:55:28;;;;;;;3.30;2.57;;;11.40;99.90;;;;;;5094332;28;20178;-69
2022/07/11 03:57:55;;;;;;;4.43;2.97;;;11.50;99.90;;;;;;5075049;28;20170;-79
2022/07/11 04:00:21;;;;;;;3.87;2.53;;;11.50;99.90;;;;;;5076998;28;21013;-78
2022/07/11 04:02:47;;;;;;;4.20;3.20;;;11.50;99.90;;;;;;5093379;28;20493;-69
2022/07/11 04:05:13;;;;;;;2.80;2.60;;;11.50;99.90;;;;;;5094040;28;20892;-69
2022/07/11 04:07:39;;;;;;;2.73;2.53;;;11.50;99.90;;;;;;5074624;28;20404;-70
2022/07/11 04:10:06;;;;;;;6.03;4.10;;;11.40;99.90;;;;;;5074486;28;20920;-78
2022/07/11 04:12:32;;;;;;;5.33;3.50;;;11.50;99.90;;;;;;5092640;28;20782;-69
2022/07/11 04:14:58;;;;;;;3.20;2.50;;;11.50;99.90;;;;;;5093928;28;20389;-78
2022/07/11 04:17:24;;;;;;;3.27;2.87;;;11.60;99.90;;;;;;5076962;28;20174;-79
2022/07/11 04:19:50;;;;;;;3.90;2.33;;;11.60;99.90;;;;;;5076038;28;20434;-70
2022/07/11 04:22:16;;;;;;;4.80;3.60;;;11.70;99.90;;;;;;5089060;28;20178;-78
2022/07/11 04:24:42;;;;;;;5.60;3.00;;;11.70;99.90;;;;;;5094500;28;20402;-69
2022/07/11 04:27:08;;;;;;;3.50;3.17;;;11.70;99.90;;;;;;5080129;28;20178;-78
2022/07/11 04:29:33;;;;;;;6.90;3.03;;;11.80;99.90;;;;;;5072910;28;20432;-70
2022/07/11 04:31:59;;;;;;;4.30;2.93;;;11.90;99.90;;;;;;5085555;28;20276;-77
2022/07/11 04:34:24;;;;;;;3.57;2.77;;;12.00;99.90;;;;;;5093331;28;20557;-78
2022/07/11 04:36:50;;;;;;;2.97;2.43;;;12.00;99.90;;;;;;5081111;28;20538;-78
2022/07/11 04:39:16;;;;;;;4.83;2.90;;;12.10;99.90;;;;;;5092247;28;20178;-69
2022/07/11 04:41:41;;;;;;;4.40;3.53;;;12.10;99.90;;;;;;5093010;28;20173;-69
2022/07/11 04:44:07;;;;;;;8.93;4.47;;;12.20;99.90;;;;;;5072794;28;20248;-78
2022/07/11 04:46:33;;;;;;;7.90;3.50;;;12.20;99.90;;;;;;5074190;28;20392;-69
2022/07/11 04:48:59;;;;;;;4.77;2.90;;;12.30;99.90;;;;;;5092701;28;20181;-69
2022/07/11 04:51:25;;;;;;;3.60;2.50;;;12.40;99.90;;;;;;5093483;28;20415;-73
2022/07/11 04:53:51;;;;;;;5.00;2.90;;;12.40;99.90;;;;;;5074093;28;20202;-74
2022/07/11 04:56:17;;;;;;;2.60;2.40;;;12.40;99.90;;;;;;5091859;28;20415;-68
2022/07/11 04:58:43;;;;;;;2.83;2.63;;;12.40;99.90;;;;;;5073620;28;20531;-74
2022/07/11 05:01:09;;;;;;;4.07;2.63;;;12.50;99.90;;;;;;5073690;28;20363;-75
2022/07/11 05:03:38;;;;;;;5.07;3.10;;;12.60;99.90;;;;;;5091052;28;20227;-75
2022/07/11 05:06:04;;;;;;;3.93;3.10;;;12.60;99.90;;;;;;5087098;28;20407;-68
2022/07/11 05:08:30;;;;;;;3.33;3.03;;;12.70;99.90;;;;;;5086619;28;20447;-67
2022/07/11 05:10:57;;;;;;;3.30;3.00;;;12.80;99.90;;;;;;5091282;28;20422;-76
2022/07/11 05:13:23;;;;;;;6.20;3.20;;;12.80;99.90;;;;;;5083464;28;20204;-67
2022/07/11 05:15:48;;;;;;;2.47;2.20;;;12.80;99.90;;;;;;5089383;28;20518;-76
2022/07/11 05:18:14;;;;;;;2.80;2.60;;;12.90;99.90;;;;;;5093539;28;20453;-67
2022/07/11 05:20:40;;;;;;;6.10;3.10;;;12.90;99.90;;;;;;5088675;28;20178;-77
2022/07/11 05:23:06;;;;;;;4.20;2.90;;;13.00;99.90;;;;;;5072705;28;20300;-67
2022/07/11 05:25:31;;;;;;;6.70;3.00;;;13.10;99.90;;;;;;5075312;28;20539;-67
2022/07/11 05:27:57;;;;;;;2.80;2.30;;;13.20;99.90;;;;;;5089366;28;20416;-67
2022/07/11 05:30:22;;;;;;;5.60;2.90;;;13.20;99.90;;;;;;5074173;28;20681;-76
2022/07/11 05:32:48;;;;;;;4.20;2.40;;;13.30;99.90;;;;;;5092565;28;20244;-76
2022/07/11 05:35:14;;;;;;;6.10;2.57;;;13.40;99.90;;;;;;5092144;28;20189;-67
2022/07/11 05:37:39;;;;;;;3.03;2.43;;;13.40;99.90;;;;;;5073496;28;20178;-67
2022/07/11 05:40:06;;;;;;;3.10;2.37;;;13.50;99.90;;;;;;5073383;28;20580;-77
2022/07/11 05:42:32;;;;;;;5.87;3.03;;;13.50;99.90;;;;;;5089908;28;20193;-67
2022/07/11 05:44:57;;;;;;;11.17;3.30;;;13.60;99.90;;;;;;5079898;28;20921;-76
2022/07/11 05:47:23;;;;;;;3.83;2.30;;;13.60;99.90;;;;;;5076173;28;20394;-67
2022/07/11 05:49:49;;;;;;;3.70;2.73;;;13.70;99.90;;;;;;5073257;28;20181;-75
2022/07/11 05:52:15;;;;;;;5.40;2.70;;;13.80;99.90;;;;;;5085190;28;20201;-67
2022/07/11 05:54:40;;;;;;;10.97;3.07;;;13.90;99.90;;;;;;5093062;28;20467;-67
2022/07/11 05:57:06;;;;;;;2.53;2.43;;;14.00;99.90;;;;;;5092077;28;20212;-76
2022/07/11 05:59:32;;;;;;;2.93;2.40;;;14.10;99.90;;;;;;5087583;28;20189;-67
2022/07/11 06:01:57;;;;;;;6.07;2.10;;;14.20;99.90;;;;;;5076120;28;20174;-68
2022/07/11 06:04:23;;;;;;;5.60;2.77;;;14.30;99.90;;;;;;5075457;28;20198;-76
2022/07/11 06:06:48;;;;;;;3.10;2.00;;;14.30;99.90;;;;;;5076958;28;20235;-77
2022/07/11 06:09:14;;;;;;;2.80;1.97;;;14.30;99.90;;;;;;5076787;28;20185;-68
2022/07/11 06:11:40;;;;;;;4.50;2.30;;;14.40;99.90;;;;;;5075535;28;20178;-76
2022/07/11 06:14:06;;;;;;;4.13;1.80;;;14.50;99.90;;;;;;5075956;28;20265;-67
2022/07/11 06:16:33;;;;;;;3.97;2.13;;;14.50;99.90;;;;;;5077151;28;20435;-76
2022/07/11 06:18:59;;;;;;;2.70;2.50;;;14.60;99.90;;;;;;5076750;28;20378;-67
2022/07/11 06:21:25;;;;;;;2.43;2.20;;;14.60;99.90;;;;;;5075988;28;20371;-76
2022/07/11 06:23:51;;;;;;;2.57;1.97;;;14.60;99.90;;;;;;5075736;28;20435;-67
2022/07/11 06:26:17;;;;;;;2.47;2.03;;;14.70;99.90;;;;;;5076586;28;20401;-76
2022/07/11 06:28:43;;;;;;;2.20;1.90;;;14.70;99.90;;;;;;5076504;28;20788;-77
2022/07/11 06:31:09;;;;;;;2.60;1.40;;;14.80;99.90;;;;;;5076631;28;20523;-67
2022/07/11 06:33:35;;;;;;;2.90;2.27;;;14.90;99.90;;;;;;5075499;28;20517;-67
2022/07/11 06:36:02;;;;;;;8.00;2.60;;;14.90;99.90;;;;;;5076424;28;20162;-68
2022/07/11 06:38:29;;;;;;;2.00;1.80;;;14.90;99.90;;;;;;5075904;28;20174;-72
2022/07/11 06:40:55;;;;;;;8.17;2.07;;;14.90;99.90;;;;;;5075919;28;20446;-68
2022/07/11 06:43:20;;;;;;;2.53;1.90;;;15.00;99.90;;;;;;5073934;28;20407;-67
2022/07/11 06:45:47;;;;;;;7.10;2.40;;;15.10;99.90;;;;;;5074373;28;20499;-68
2022/07/11 06:48:13;;;;;;;2.80;1.93;;;15.10;99.90;;;;;;5095308;28;20593;-68
2022/07/11 06:50:39;;;;;;;4.30;2.10;;;15.20;99.90;;;;;;5096647;28;20428;-67
2022/07/11 06:53:05;;;;;;;2.30;2.00;;;15.20;99.90;;;;;;5095351;28;20201;-68
2022/07/11 06:55:32;;;;;;;6.10;1.60;;;15.30;99.90;;;;;;5096534;28;20413;-76
2022/07/11 06:57:58;;;;;;;5.83;1.70;;;15.30;99.90;;;;;;5096241;28;20895;-68
2022/07/11 07:00:24;;;;;;;3.30;1.47;;;15.40;99.90;;;;;;5094481;28;20407;-67
2022/07/11 07:02:49;;;;;;;2.30;2.00;;;15.40;99.90;;;;;;5081286;28;20532;-76
2022/07/11 07:05:15;;;;;;;1.70;1.47;;;15.30;99.90;;;;;;5075847;28;20678;-76
2022/07/11 07:07:41;;;;;;;4.87;1.83;;;15.30;99.90;;;;;;5076041;28;20212;-67
2022/07/11 07:10:07;;;;;;;2.00;1.80;;;15.30;99.90;;;;;;5075809;28;20647;-68
2022/07/11 07:12:36;;;;;;;5.27;1.97;;;15.30;99.90;;;;;;5073776;28;20206;-67
2022/07/11 07:15:02;;;;;;;4.77;2.00;;;15.40;99.90;;;;;;5091995;28;20436;-72
2022/07/11 07:17:28;;;;;;;2.87;1.97;;;15.60;99.90;;;;;;5090106;28;20433;-76
2022/07/11 07:19:54;;;;;;;6.43;1.63;;;15.80;99.90;;;;;;5091630;28;20230;-68
2022/07/11 07:22:19;;;;;;;1.77;1.53;;;16.00;99.90;;;;;;5095024;28;20526;-67
2022/07/11 07:24:45;;;;;;;3.93;1.60;;;16.30;99.90;;;;;;5080388;28;20198;-76
2022/07/11 07:27:11;;;;;;;2.07;1.30;;;16.40;99.90;;;;;;5075349;28;20177;-75
2022/07/11 07:29:38;;;;;;;4.03;1.27;;;16.50;99.90;;;;;;5095383;28;20181;-76
2022/07/11 07:32:05;;;;;;;3.47;1.60;;;16.50;99.90;;;;;;5095261;28;20447;-68
2022/07/11 07:34:32;;;;;;;1.70;1.60;;;16.50;99.90;;;;;;5076124;28;20455;-69
2022/07/11 07:36:58;;;;;;;3.20;2.07;;;16.40;99.90;;;;;;5074701;28;20416;-75
2022/07/11 07:39:23;;;;;;;1.33;1.23;;;16.40;99.90;;;;;;5091956;28;20816;-75
2022/07/11 07:41:49;;;;;;;7.10;2.20;;;16.50;99.90;;;;;;5095378;28;20442;-68
2022/07/11 07:44:15;;;;;;;2.90;1.37;;;16.70;99.90;;;;;;5078256;28;20232;-70
2022/07/11 07:46:41;;;;;;;1.93;1.70;;;16.80;99.90;;;;;;5074822;28;20522;-68
2022/07/11 07:49:06;;;;;;;2.20;1.27;;;17.10;99.90;;;;;;5078791;28;20171;-75
2022/07/11 07:51:33;;;;;;;3.00;1.53;;;17.20;99.90;;;;;;5074616;28;20170;-75
2022/07/11 07:53:58;;;;;;;2.60;2.40;;;17.20;99.90;;;;;;5085180;28;20274;-68
2022/07/11 07:56:24;;;;;;;6.80;1.40;;;17.10;99.90;;;;;;5094897;28;20766;-71
2022/07/11 07:58:53;;;;;;;4.37;1.50;;;17.10;99.90;;;;;;5082990;28;20219;-70
2022/07/11 08:01:34;;;;;;;1.73;1.50;;;17.30;99.90;;;;;;5074562;28;20396;-75
2022/07/11 08:04:00;;;;;;;4.13;1.50;;;17.50;99.90;;;;;;5071757;28;20522;-67
2022/07/11 08:06:26;;;;;;;1.87;1.27;;;17.70;99.90;;;;;;5074290;28;20400;-68
2022/07/11 08:08:52;;;;;;;1.40;1.30;;;17.60;99.90;;;;;;5074460;28;20420;-74
2022/07/11 08:11:18;;;;;;;2.23;1.23;;;17.60;99.90;;;;;;5074078;28;20178;-76
2022/07/11 08:13:44;;;;;;;2.50;1.30;;;17.50;99.90;;;;;;5085553;28;20221;-69
2022/07/11 08:16:10;;;;;;;3.03;1.80;;;17.40;99.90;;;;;;5092748;28;20408;-65
2022/07/11 08:18:36;;;;;;;1.47;1.30;;;17.30;99.90;;;;;;5082374;28;20447;-70
2022/07/11 08:21:02;;;;;;;4.20;1.40;;;17.40;99.90;;;;;;5089965;28;20178;-74
2022/07/11 08:23:27;;;;;;;2.40;1.40;;;17.50;99.90;;;;;;5072973;28;20444;-66
2022/07/11 08:25:53;;;;;;;1.70;1.23;;;17.80;99.90;;;;;;5073977;28;20403;-65
2022/07/11 08:28:19;;;;;;;1.50;1.40;;;17.90;99.90;;;;;;5072665;28;20178;-66
2022/07/11 08:30:45;;;;;;;1.77;1.17;;;18.00;99.90;;;;;;5073424;28;20182;-66
2022/07/11 08:33:12;;;;;;;3.23;1.47;;;18.10;99.90;;;;;;5072702;28;20486;-74
2022/07/11 08:35:38;;;;;;;1.97;1.20;;;18.40;99.90;;;;;;5084920;28;20427;-74
2022/07/11 08:38:03;;;;;;;3.77;1.30;;;18.50;99.90;;;;;;5093054;28;20408;-68
2022/07/11 08:40:29;;;;;;;4.17;1.10;;;18.70;99.90;;;;;;5094015;28;20685;-76
2022/07/11 08:42:57;;;;;;;1.70;1.13;;;18.70;99.90;;;;;;5092991;28;20273;-67
2022/07/11 08:45:28;;;;;;;2.67;1.10;;;18.80;99.90;;;;;;5093887;28;20450;-65
2022/07/11 08:47:56;;;;;;;1.33;1.23;;;18.80;99.90;;;;;;5084125;28;20450;-70
2022/07/11 08:50:23;;;;;;;2.60;1.40;;;18.80;99.90;;;;;;5072939;28;20408;-74
2022/07/11 08:52:49;;;;;;;2.37;1.10;;;18.70;99.90;;;;;;5072638;28;20448;-69
2022/07/11 08:55:14;;;;;;;1.10;0.90;;;18.70;98.40;;;;;;5073372;28;20423;-68
2022/07/11 08:57:40;;;;;;;1.80;1.00;;;18.80;96.90;;;;;;5073361;28;20641;-72
2022/07/11 09:00:09;;;;;;;1.50;1.30;;;18.90;96.60;;;;;;5073494;28;20170;-76
2022/07/11 09:02:35;;;;;;;4.57;1.70;;;19.10;95.40;;;;;;5072475;28;20455;-76
2022/07/11 09:05:08;;;;;;;3.43;1.10;;;19.30;95.40;;;;;;5072897;28;20455;-76
2022/07/11 09:07:48;;;;;;;3.90;1.10;;;19.50;95.50;;;;;;5072735;28;20777;-68
2022/07/11 09:10:16;;;;;;;2.73;1.07;;;19.50;95.50;;;;;;5073033;28;20426;-68
2022/07/11 09:13:02;;;;;;;3.47;1.20;;;19.70;95.60;;;;;;5072327;28;20475;-77
2022/07/11 09:15:41;;;;;;;2.03;1.57;;;19.70;95.60;;;;;;5073268;28;20416;-69
2022/07/11 09:18:41;;;;;;;2.90;1.10;;;19.60;95.50;;;;;;5074487;28;20400;-75
2022/07/11 09:26:49;;;;;;;2.43;1.00;;;19.50;84.60;;;;;;5093235;28;20402;-69
2022/07/11 09:29:18;;;;;;;1.87;1.07;;;19.80;88.30;;;;;;5093229;28;20408;-76
2022/07/11 09:31:44;;;;;;;1.67;1.57;;;20.00;89.10;;;;;;5091811;28;20424;-68
2022/07/11 09:34:16;;;;;;;1.43;0.90;;;20.20;83.40;;;;;;5084051;28;21042;-76
2022/07/11 09:36:55;;;;;;;1.87;1.00;;;20.20;77.50;;;;;;5072012;28;20436;-69
2022/07/11 09:39:26;;;;;;;1.10;0.87;;;20.40;70.20;;;;;;5073159;28;20408;-77
2022/07/11 09:41:53;;;;;;;2.23;1.00;;;20.30;62.80;;;;;;5072881;28;20427;-76
2022/07/11 09:44:33;;;;;;;1.30;0.93;;;20.50;69.10;;;;;;5072034;28;21006;-75
2022/07/11 09:46:59;;;;;;;2.23;0.80;;;20.90;70.20;;;;;;5072846;28;20400;-68
2022/07/11 09:49:34;;;;;;;1.20;0.90;;;21.10;62.90;;;;;;5077973;28;20427;-68
2022/07/11 09:52:14;;;;;;;1.40;0.93;;;21.40;52.50;;;;;;5081384;28;20448;-76
2022/07/11 09:55:00;;;;;;;0.90;0.77;;;21.60;28.20;;;;;;5081676;28;20481;-76
2022/07/11 09:57:37;;;;;;;1.40;0.93;;;21.90;27.70;;;;;;5091829;28;20426;-76
2022/07/11 10:00:06;;;;;;;1.67;1.00;;;22.20;28.40;;;;;;5072729;28;20416;-77
2022/07/11 10:02:32;;;;;;;1.73;1.00;;;22.10;23.70;;;;;;5083273;28;20850;-69
2022/07/11 10:04:59;;;;;;;1.70;1.00;;;22.10;26.70;;;;;;5091082;28;20530;-67
2022/07/11 10:07:25;;;;;;;1.00;0.70;;;22.00;22.90;;;;;;5081894;28;20953;-76
2022/07/11 10:09:51;;;;;;;2.70;0.90;;;22.10;22.10;;;;;;5072549;28;21057;-76
2022/07/11 10:12:17;;;;;;;1.73;0.97;;;22.10;19.10;;;;;;5080570;28;20526;-68
2022/07/11 10:14:44;;;;;;;1.57;1.33;;;22.50;11.00;;;;;;5092739;28;20523;-68
2022/07/11 10:17:20;;;;;;;2.50;1.10;;;22.80;1.60;;;;;;5084818;28;20577;-68
2022/07/11 10:20:10;;;;;;;2.40;1.00;;;23.40;12.90;;;;;;5071885;28;20885;-68
2022/07/11 10:22:55;;;;;;;2.03;0.90;;;23.90;1.00;;;;;;5080744;28;20417;-68
2022/07/11 10:25:43;;;;;;;1.30;0.90;;;24.20;1.00;;;;;;5072631;28;20420;-77
2022/07/11 10:28:32;;;;;;;3.23;1.00;;;24.70;1.00;;;;;;5087251;28;20419;-68
2022/07/11 10:31:00;;;;;;;3.73;0.70;;;24.40;1.00;;;;;;5092480;28;20961;-76
2022/07/11 10:33:27;;;;;;;1.47;0.73;;;24.40;1.00;;;;;;5074773;28;20466;-78
2022/07/11 10:35:53;;;;;;;1.00;0.80;;;24.70;1.00;;;;;;5072571;28;21084;-72
2022/07/11 10:38:21;;;;;;;1.07;0.73;;;24.50;1.00;;;;;;5087088;28;20439;-77
2022/07/11 10:40:57;;;;;;;2.17;1.07;;;24.10;1.00;;;;;;5092595;28;20400;-69
2022/07/11 10:43:22;;;;;;;2.80;0.90;;;23.80;1.00;;;;;;5074976;28;20514;-77
2022/07/11 10:46:05;;;;;;;1.20;0.90;;;24.10;1.00;;;;;;5072330;28;20487;-68
2022/07/11 10:48:32;;;;;;;2.17;1.03;;;24.30;1.00;;;;;;5089950;28;20173;-69
2022/07/11 10:51:08;;;;;;;1.97;1.00;;;24.00;1.00;;;;;;5092246;28;20459;-76
2022/07/11 10:53:45;;;;;;;1.00;0.70;;;23.60;1.00;;;;;;5090009;28;20463;-76
2022/07/11 10:56:29;;;;;;;2.57;1.13;;;23.10;1.00;;;;;;5088710;28;20503;-76
2022/07/11 10:59:17;;;;;;;2.33;0.90;;;23.50;1.00;;;;;;5075538;28;20802;-69
2022/07/11 11:02:11;;;;;;;1.83;0.80;;;24.40;1.00;;;;;;5085710;28;20465;-70
2022/07/11 11:04:58;;;;;;;1.20;0.87;;;24.90;1.00;;;;;;5095848;28;20435;-77
2022/07/11 11:07:44;;;;;;;1.50;1.33;;;25.00;1.00;;;;;;5080006;28;20451;-77
2022/07/11 11:10:18;;;;;;;2.30;0.93;;;24.40;1.00;;;;;;5075414;28;20934;-76
2022/07/11 11:13:11;;;;;;;2.10;0.93;;;24.00;1.00;;;;;;5074566;28;20462;-70
2022/07/11 11:15:44;;;;;;;4.80;1.30;;;24.60;1.00;;;;;;5075555;28;20430;-77
2022/07/11 11:18:25;;;;;;;1.63;0.83;;;25.50;1.00;;;;;;5075406;28;20423;-69
2022/07/11 11:21:02;;;;;;;1.03;0.70;;;26.20;1.00;;;;;;5079451;28;20953;-69
2022/07/11 11:23:29;;;;;;;2.30;1.10;;;26.20;1.00;;;;;;5094573;28;20426;-77
2022/07/11 11:26:03;;;;;;;3.73;0.70;;;26.50;1.00;;;;;;5089947;28;20424;-76
2022/07/11 11:28:29;;;;;;;1.10;0.60;;;26.90;1.00;;;;;;5094111;28;20474;-77
2022/07/11 11:30:55;;;;;;;2.77;1.20;;;26.80;1.00;;;;;;5091089;28;20436;-69
2022/07/11 11:33:21;;;;;;;1.13;0.70;;;27.00;1.00;;;;;;5073493;28;20200;-69
2022/07/11 11:36:05;;;;;;;1.10;0.80;;;27.10;1.00;;;;;;5076002;28;20503;-69
2022/07/11 11:38:36;;;;;;;1.63;0.97;;;27.10;1.00;;;;;;5075379;28;20443;-76
2022/07/11 11:41:05;;;;;;;1.40;1.10;;;26.50;1.00;;;;;;5095017;28;20718;-70
2022/07/11 11:43:31;;;;;;;2.97;0.80;;;25.60;1.00;;;;;;5093761;28;20426;-70
2022/07/11 11:45:57;;;;;;;2.47;0.90;;;24.70;1.00;;;;;;5075168;28;20433;-70
2022/07/11 11:48:34;;;;;;;1.80;0.77;;;24.90;1.00;;;;;;5074814;28;20451;-68
2022/07/11 11:51:08;;;;;;;1.93;0.77;;;25.70;1.00;;;;;;5074070;28;20392;-72
2022/07/11 11:54:10;;;;;;;3.57;1.30;;;26.70;1.00;;;;;;5074403;28;20452;-74
2022/07/11 11:56:36;;;;;;;1.97;0.60;;;28.10;1.00;;;;;;5012780;28;20422;-71
2022/07/11 11:59:15;;;;;;;2.50;0.97;;;28.60;1.00;;;;;;5073189;28;20413;-72
2022/07/11 12:01:43;;;;;;;2.37;0.70;;;28.40;1.00;;;;;;5074399;28;20436;-78
2022/07/11 12:04:11;;;;;;;4.00;0.70;;;29.00;1.00;;;;;;5078345;28;20424;-72
2022/07/11 12:06:46;;;;;;;5.90;1.03;;;29.70;1.00;;;;;;5094474;28;20396;-77
2022/07/11 12:09:18;;;;;;;1.30;1.00;;;29.50;1.00;;;;;;5092506;28;20513;-78
2022/07/11 12:12:43;;;;;;;2.73;0.77;;;28.20;1.00;;;;;;5093143;28;20446;-76
2022/07/11 12:14:34;;;;;;;1.10;0.77;;;26.80;1.00;;;;;;5079836;28;20482;-76
2022/07/11 12:17:00;;;;;;;1.77;1.00;;;26.20;1.00;;;;;;5074342;28;20428;-71
2022/07/11 12:19:33;;;;;;;2.87;0.87;;;26.70;1.00;;;;;;5094487;28;20700;-78
2022/07/11 12:22:02;;;;;;;1.80;0.97;;;27.60;1.00;;;;;;5082106;28;20768;-72
2022/07/11 12:24:28;;;;;;;4.70;0.90;;;28.00;1.00;;;;;;5071827;28;21386;-78
2022/07/11 12:26:55;;;;;;;2.90;0.70;;;28.10;1.00;;;;;;5073827;28;20495;-77
2022/07/11 12:29:27;;;;;;;4.40;0.80;;;28.00;1.00;;;;;;5084946;28;20426;-78
2022/07/11 12:32:11;;;;;;;5.07;1.10;;;28.10;1.00;;;;;;5090153;28;20947;-73
2022/07/11 12:34:36;;;;;;;1.07;0.60;;;28.60;1.00;;;;;;5078115;28;20836;-72
2022/07/11 12:37:09;;;;;;;1.50;0.87;;;29.10;1.00;;;;;;5073857;28;20409;-72
2022/07/11 12:39:40;;;;;;;2.97;0.97;;;29.40;1.00;;;;;;5076510;28;20254;-72
2022/07/11 12:42:25;;;;;;;1.33;1.10;;;29.10;1.00;;;;;;5073981;28;20850;-78
2022/07/11 12:45:07;;;;;;;1.53;0.80;;;29.60;1.00;;;;;;5077056;28;20788;-73
2022/07/11 12:47:33;;;;;;;1.17;1.00;;;30.10;1.00;;;;;;5092531;28;20919;-77
2022/07/11 12:50:06;;;;;;;1.77;0.83;;;30.40;1.00;;;;;;5085054;28;20514;-78
2022/07/11 12:52:40;;;;;;;2.17;0.80;;;30.00;1.00;;;;;;5072601;28;20448;-79
2022/07/11 12:55:07;;;;;;;1.40;0.80;;;29.20;1.00;;;;;;5090793;28;20514;-72
2022/07/11 12:57:33;;;;;;;1.83;0.90;;;29.00;1.00;;;;;;5077377;28;20416;-75
2022/07/11 13:00:16;;;;;;;1.20;0.70;;;28.20;1.00;;;;;;5072708;28;20389;-73
2022/07/11 13:02:49;;;;;;;1.87;0.93;;;27.70;1.00;;;;;;5089083;28;20451;-79